Time;durP1;ratioP1;P1;durP2;ratioP2;P2;SDS_P1;SDS_P2;PMS_P1;PMS_P2;Temp;Humidity;BMP_temperature;BMP_pressure;BME280_temperature;BME280_humidity;BME280_pressure;Samples;Min_cycle;Max_cycle;Signal;HPM_P1;HPM_P2
2022/01/04 00:00:21;;;;;;;0.40;0.40;;;;;;;10.65;75.94;97864.22;4897417;29;20084;-73
2022/01/04 00:02:46;;;;;;;0.40;0.40;;;;;;;10.62;76.25;97864.31;4897566;29;20036;-73
2022/01/04 00:05:12;;;;;;;0.30;0.30;;;;;;;10.66;76.76;97860.75;4897404;29;20145;-73
2022/01/04 00:07:38;;;;;;;0.30;0.30;;;;;;;10.67;76.42;97850.31;4905881;29;20031;-73
2022/01/04 00:10:05;;;;;;;0.60;0.60;;;;;;;10.63;77.04;97850.47;4898614;29;20028;-73
2022/01/04 00:15:14;;;;;;;0.30;0.30;;;;;;;10.56;77.79;97834.28;4897341;29;20047;-73
2022/01/04 00:17:39;;;;;;;0.40;0.40;;;;;;;10.52;78.13;97843.91;4897195;29;20024;-73
2022/01/04 00:20:06;;;;;;;0.30;0.30;;;;;;;10.52;78.16;97827.53;4897062;29;20443;-73
2022/01/04 00:22:31;;;;;;;0.40;0.40;;;;;;;10.60;78.19;97833.31;4897133;29;20414;-73
2022/01/04 00:24:57;;;;;;;0.30;0.30;;;;;;;10.63;78.10;97829.75;4897012;29;20032;-73
2022/01/04 00:27:22;;;;;;;0.52;0.52;;;;;;;10.60;78.12;97827.28;4897011;29;20103;-73
2022/01/04 00:29:48;;;;;;;0.77;0.77;;;;;;;10.60;78.26;97822.09;4896455;29;20032;-73
2022/01/04 00:32:14;;;;;;;0.40;0.40;;;;;;;10.60;78.65;97814.31;4897141;29;20043;-73
2022/01/04 00:34:41;;;;;;;0.35;0.35;;;;;;;10.54;79.00;97816.22;4896942;29;20028;-75
2022/01/04 00:37:06;;;;;;;2.15;0.75;;;;;;;10.58;78.85;97816.09;4901147;29;20390;-75
2022/01/04 00:39:31;;;;;;;0.55;0.55;;;;;;;10.60;78.95;97809.16;4902483;29;20038;-73
2022/01/04 00:41:57;;;;;;;0.40;0.40;;;;;;;10.59;79.37;97808.31;4896843;29;20024;-76
2022/01/04 00:44:22;;;;;;;1.50;0.60;;;;;;;10.55;79.12;97797.19;4896896;29;20020;-75
2022/01/04 00:46:47;;;;;;;0.95;0.95;;;;;;;10.61;78.95;97795.28;4896777;29;20025;-76
2022/01/04 00:49:17;;;;;;;0.35;0.35;;;;;;;10.54;79.73;97795.50;4896787;29;20028;-75
2022/01/04 00:51:44;;;;;;;1.27;0.40;;;;;;;10.55;79.40;97781.66;4896822;29;20048;-73
2022/01/04 00:54:11;;;;;;;0.30;0.30;;;;;;;10.57;79.61;97778.16;4896916;29;20419;-75
2022/01/04 00:56:37;;;;;;;0.30;0.30;;;;;;;10.55;79.96;97773.03;4896873;29;20031;-73
2022/01/04 00:59:03;;;;;;;0.75;0.75;;;;;;;10.55;79.57;97763.53;4896773;29;20460;-75
2022/01/04 05:16:08;;;;;;;0.35;0.35;;;;;;;10.58;84.06;97251.47;5563901;23;20504;-72
2022/01/04 05:18:34;;;;;;;0.95;0.75;;;;;;;10.57;85.14;97239.44;4938431;29;20040;-75
2022/01/04 05:20:59;;;;;;;1.17;1.08;;;;;;;10.52;85.70;97240.47;4938266;29;20061;-75
2022/01/04 05:23:24;;;;;;;0.57;0.57;;;;;;;10.49;86.18;97242.34;4938325;29;20034;-75
2022/01/04 05:25:50;;;;;;;0.50;0.50;;;;;;;10.47;87.51;97244.16;4937788;29;20059;-76
2022/01/04 05:28:15;;;;;;;0.40;0.40;;;;;;;10.41;87.43;97250.44;4938253;29;20062;-72
2022/01/04 05:30:40;;;;;;;0.43;0.43;;;;;;;10.44;86.64;97224.44;4938643;29;20456;-75
2022/01/04 05:33:06;;;;;;;0.55;0.55;;;;;;;10.48;87.69;97231.16;4938090;29;20038;-73
2022/01/04 05:35:31;;;;;;;0.50;0.50;;;;;;;10.38;87.92;97229.84;4937976;29;20055;-73
2022/01/04 05:37:56;;;;;;;0.40;0.40;;;;;;;10.26;89.16;97230.38;4927352;29;20118;-74
2022/01/04 05:40:22;;;;;;;0.73;0.73;;;;;;;10.34;90.40;97217.94;4937919;29;20028;-75
2022/01/04 05:42:47;;;;;;;0.50;0.50;;;;;;;10.28;89.66;97218.22;4937857;29;20028;-76
2022/01/04 05:45:12;;;;;;;0.40;0.40;;;;;;;10.27;90.83;97216.53;4937784;29;20086;-75
2022/01/04 05:47:38;;;;;;;0.63;0.63;;;;;;;10.21;90.74;97206.41;4937677;29;20035;-72
2022/01/04 05:50:05;;;;;;;0.32;0.32;;;;;;;10.19;91.06;97188.34;4937838;29;20028;-74
2022/01/04 05:52:32;;;;;;;0.65;0.65;;;;;;;10.18;91.58;97185.81;4937737;29;20034;-75
2022/01/04 05:54:57;;;;;;;0.50;0.50;;;;;;;10.18;91.24;97175.47;4937645;29;20031;-75
2022/01/04 05:57:23;;;;;;;0.47;0.45;;;;;;;10.17;90.95;97173.78;4937400;29;20024;-75
2022/01/04 05:59:48;;;;;;;0.30;0.30;;;;;;;10.14;92.03;97163.56;4937606;29;20110;-74
2022/01/04 06:02:13;;;;;;;1.65;1.27;;;;;;;10.02;93.87;97165.78;4937550;29;20039;-74
2022/01/04 06:04:39;;;;;;;0.43;0.43;;;;;;;9.98;93.21;97158.19;4937585;29;20142;-74
2022/01/04 06:07:04;;;;;;;0.50;0.50;;;;;;;10.00;92.83;97162.38;4937117;29;20421;-76
2022/01/04 06:09:40;;;;;;;0.35;0.35;;;;;;;10.09;93.81;97155.16;4937246;29;20029;-75
2022/01/04 06:14:50;;;;;;;0.40;0.40;;;;;;;9.98;94.78;97159.03;4937649;29;20106;-75
2022/01/04 06:14:57;;;;;;;0.30;0.30;;;;;;;9.96;93.80;97153.09;4937313;29;20485;-72
2022/01/04 06:17:28;;;;;;;0.50;0.50;;;;;;;9.98;93.78;97148.69;4937499;29;20059;-76
2022/01/04 06:19:55;;;;;;;0.40;0.40;;;;;;;10.01;93.86;97147.72;4937222;29;20035;-75
2022/01/04 06:22:21;;;;;;;0.40;0.40;;;;;;;10.01;95.26;97145.97;4937283;29;20106;-75
2022/01/04 06:24:46;;;;;;;0.35;0.35;;;;;;;10.00;94.67;97131.34;4937071;29;20028;-75
2022/01/04 06:27:12;;;;;;;0.30;0.30;;;;;;;10.01;96.03;97122.69;4935792;29;20035;-74
2022/01/04 06:29:38;;;;;;;0.38;0.38;;;;;;;10.09;95.11;97109.41;4937068;29;20126;-75
2022/01/04 06:32:05;;;;;;;0.60;0.60;;;;;;;10.05;95.15;97097.50;4937118;29;20412;-75
2022/01/04 06:34:30;;;;;;;0.47;0.47;;;;;;;10.09;95.79;97098.22;4951592;29;20478;-72
2022/01/04 06:36:56;;;;;;;0.35;0.35;;;;;;;10.04;94.62;97091.50;4936544;29;20038;-75
2022/01/04 06:39:21;;;;;;;0.30;0.30;;;;;;;10.05;96.17;97090.56;4936732;29;20441;-76
2022/01/04 06:41:46;;;;;;;0.30;0.30;;;;;;;10.11;95.37;97091.25;4936958;29;20032;-74
2022/01/04 06:44:12;;;;;;;0.40;0.40;;;;;;;10.19;94.29;97082.22;4936786;29;20028;-74
2022/01/04 06:46:38;;;;;;;0.32;0.32;;;;;;;10.25;94.27;97078.56;4936534;29;20102;-75
2022/01/04 06:49:04;;;;;;;0.30;0.30;;;;;;;10.35;93.56;97074.69;4936571;29;20031;-75
2022/01/04 06:51:29;;;;;;;0.68;0.68;;;;;;;10.36;94.20;97071.16;4936752;29;20110;-72
2022/01/04 06:53:55;;;;;;;0.30;0.30;;;;;;;10.30;94.46;97081.81;4936742;29;20566;-72
2022/01/04 06:56:20;;;;;;;0.80;0.45;;;;;;;10.34;94.22;97072.97;4936314;29;20053;-76
2022/01/04 06:58:46;;;;;;;0.30;0.30;;;;;;;10.33;94.58;97075.63;4936543;29;20067;-75
2022/01/04 07:01:11;;;;;;;2.53;0.52;;;;;;;10.32;94.42;97069.63;4936498;29;20024;-75
2022/01/04 07:03:36;;;;;;;0.50;0.50;;;;;;;10.38;93.94;97074.53;4936436;29;20059;-74
2022/01/04 07:06:02;;;;;;;0.22;0.22;;;;;;;10.39;94.12;97071.00;4936014;29;20058;-73
2022/01/04 07:08:27;;;;;;;3.17;2.88;;;;;;;10.46;93.43;97072.44;4936350;29;20466;-73
2022/01/04 07:10:52;;;;;;;0.40;0.40;;;;;;;10.40;94.89;97067.53;4936505;29;20166;-74
2022/01/04 07:13:18;;;;;;;0.30;0.30;;;;;;;10.47;94.15;97063.75;4936346;29;20028;-75
2022/01/04 07:15:45;;;;;;;0.43;0.43;;;;;;;10.45;94.73;97065.59;4935954;29;20027;-75
2022/01/04 07:18:11;;;;;;;0.30;0.30;;;;;;;10.64;93.47;97057.00;4936127;29;20035;-75
2022/01/04 07:20:36;;;;;;;0.40;0.40;;;;;;;10.55;94.77;97055.66;4936135;29;20032;-76
2022/01/04 07:23:02;;;;;;;0.40;0.40;;;;;;;10.49;95.30;97055.91;4936228;29;20027;-76
2022/01/04 07:25:28;;;;;;;0.35;0.35;;;;;;;10.48;94.88;97042.13;4935856;29;20036;-72
2022/01/04 07:27:53;;;;;;;0.30;0.30;;;;;;;10.52;95.25;97042.84;4936035;29;20067;-74
2022/01/04 07:30:19;;;;;;;0.30;0.30;;;;;;;10.50;96.24;97048.09;4934735;29;20452;-72
2022/01/04 07:32:44;;;;;;;0.95;0.60;;;;;;;10.46;95.52;97046.53;4935819;29;20028;-76
2022/01/04 07:35:10;;;;;;;0.40;0.40;;;;;;;10.53;95.69;97041.91;4935871;29;20028;-76
2022/01/04 07:37:35;;;;;;;0.50;0.50;;;;;;;10.49;96.96;97036.06;4935177;29;20027;-75
2022/01/04 07:40:00;;;;;;;0.95;0.50;;;;;;;10.54;95.30;97039.28;4935819;29;20027;-74
2022/01/04 07:42:26;;;;;;;0.30;0.30;;;;;;;10.58;94.74;97028.75;4935705;29;20035;-76
2022/01/04 07:44:51;;;;;;;0.35;0.35;;;;;;;10.66;94.49;97031.84;4935641;29;20119;-76
2022/01/04 07:47:17;;;;;;;1.15;1.15;;;;;;;10.68;94.56;97024.81;4935392;29;20034;-74
2022/01/04 07:49:42;;;;;;;0.30;0.30;;;;;;;10.78;93.68;97026.06;4935599;29;20031;-76
2022/01/04 07:52:07;;;;;;;0.50;0.50;;;;;;;10.80;93.71;97024.25;4935508;29;20442;-76
2022/01/04 07:54:33;;;;;;;0.40;0.40;;;;;;;10.77;94.30;97025.22;4935600;29;20047;-76
2022/01/04 07:56:58;;;;;;;0.50;0.50;;;;;;;10.88;93.78;97004.03;4935189;29;20545;-76
2022/01/04 07:59:28;;;;;;;0.32;0.32;;;;;;;10.84;93.34;96999.06;4935416;29;20027;-75
2022/01/04 08:01:53;;;;;;;0.63;0.63;;;;;;;10.89;93.29;96990.16;4935284;29;20030;-75
2022/01/04 08:04:18;;;;;;;0.30;0.30;;;;;;;10.88;93.52;96988.47;4935379;29;20398;-75
2022/01/04 08:06:44;;;;;;;0.30;0.30;;;;;;;11.02;92.39;96986.06;4935233;29;20446;-74
2022/01/04 08:09:09;;;;;;;0.30;0.30;;;;;;;11.11;91.49;96986.50;4935138;29;20036;-76
2022/01/04 08:11:34;;;;;;;0.30;0.30;;;;;;;11.10;91.84;96982.25;4935298;29;20320;-78
2022/01/04 08:14:00;;;;;;;0.30;0.30;;;;;;;11.10;92.37;96974.47;4935265;29;20503;-73
2022/01/04 08:16:25;;;;;;;0.35;0.35;;;;;;;11.13;92.47;96969.16;4934871;29;20442;-73
2022/01/04 08:18:50;;;;;;;0.30;0.30;;;;;;;11.22;91.06;96987.69;4935042;29;20449;-73
2022/01/04 08:21:15;;;;;;;0.40;0.40;;;;;;;11.19;91.70;96989.56;4935183;29;20027;-76
2022/01/04 08:23:41;;;;;;;0.30;0.30;;;;;;;11.15;91.85;96988.03;4935077;29;20544;-72
2022/01/04 08:26:06;;;;;;;5.47;2.20;;;;;;;11.26;91.28;96985.75;4934717;29;20027;-76
2022/01/04 08:28:31;;;;;;;0.68;0.68;;;;;;;11.25;92.42;96984.06;4934993;29;20378;-75
2022/01/04 08:30:57;;;;;;;0.30;0.30;;;;;;;11.25;91.54;96969.34;4935070;29;20500;-73
2022/01/04 08:33:22;;;;;;;0.82;0.82;;;;;;;11.26;91.62;96985.75;4934825;29;20499;-76
2022/01/04 08:35:48;;;;;;;0.77;0.77;;;;;;;11.28;92.32;96973.56;4934716;29;20102;-75
2022/01/04 08:38:14;;;;;;;0.40;0.40;;;;;;;11.27;92.09;96969.31;4934927;29;20031;-76
2022/01/04 08:40:39;;;;;;;0.32;0.32;;;;;;;11.32;92.13;96970.75;4934890;29;20039;-75
2022/01/04 08:43:06;;;;;;;0.40;0.40;;;;;;;11.30;93.10;96971.72;4934875;29;20027;-72
2022/01/04 08:45:32;;;;;;;0.30;0.30;;;;;;;11.27;93.41;96971.91;4934866;29;20027;-73
2022/01/04 08:47:57;;;;;;;7.38;1.17;;;;;;;11.23;93.29;96965.19;4934642;29;20412;-76
2022/01/04 08:50:23;;;;;;;0.50;0.50;;;;;;;11.20;94.07;96970.50;4934102;29;20024;-73
2022/01/04 08:52:54;;;;;;;0.43;0.43;;;;;;;11.22;92.92;96958.31;4934835;29;20032;-73
2022/01/04 08:55:20;;;;;;;0.30;0.30;;;;;;;11.23;92.62;96960.00;4934800;29;20382;-75
2022/01/04 08:57:46;;;;;;;0.73;0.73;;;;;;;11.19;93.87;96948.09;4934751;29;20481;-77
2022/01/04 09:00:12;;;;;;;5.47;2.60;;;;;;;11.27;93.78;96951.16;4934597;29;20028;-75
2022/01/04 09:02:38;;;;;;;0.28;0.28;;;;;;;11.31;92.34;96942.28;4934752;29;20038;-74
2022/01/04 09:05:04;;;;;;;0.30;0.30;;;;;;;11.42;92.01;96945.19;4933356;29;20040;-74
2022/01/04 09:07:29;;;;;;;0.60;0.60;;;;;;;11.40;92.12;96946.16;4934227;29;20031;-74
2022/01/04 09:09:55;;;;;;;1.08;0.40;;;;;;;11.58;92.21;96946.06;4949361;29;20491;-76
2022/01/04 09:12:24;;;;;;;0.38;0.38;;;;;;;11.66;91.39;96943.09;4934638;29;20039;-76
2022/01/04 09:20:09;;;;;;;6.22;1.00;;;;;;;11.43;92.49;96946.84;4771552;29;20064;-75
2022/01/04 09:22:34;;;;;;;2.13;1.20;;;;;;;11.63;89.38;96926.84;4824123;28;20408;-76
2022/01/04 09:24:59;;;;;;;1.30;0.70;;;;;;;11.72;89.29;96941.94;4801819;28;20033;-75
2022/01/04 09:27:25;;;;;;;1.85;1.75;;;;;;;11.69;90.30;96942.06;4801409;29;20118;-75
2022/01/04 09:29:50;;;;;;;0.40;0.40;;;;;;;11.59;89.98;96934.78;4822267;29;20036;-75
2022/01/04 09:32:17;;;;;;;0.45;0.45;;;;;;;11.78;88.66;96920.84;4776068;29;20051;-75
2022/01/04 09:34:46;;;;;;;0.45;0.45;;;;;;;11.74;88.79;96920.16;4826403;28;20400;-75
2022/01/04 09:37:12;;;;;;;2.28;1.80;;;;;;;11.81;88.03;96923.28;4773826;29;21421;-75
2022/01/04 09:39:37;;;;;;;0.43;0.30;;;;;;;12.03;85.19;96916.06;4819137;29;20140;-76
2022/01/04 09:42:07;;;;;;;0.30;0.30;;;;;;;12.03;86.73;96916.06;4789016;28;20044;-76
2022/01/04 09:44:33;;;;;;;0.35;0.35;;;;;;;11.98;88.15;96914.63;4827187;28;20040;-77
2022/01/04 09:47:02;;;;;;;5.20;0.82;;;;;;;11.86;89.00;96908.34;4807380;29;20144;-77
2022/01/04 09:49:29;;;;;;;0.20;0.20;;;;;;;11.94;86.75;96898.41;4794162;28;20078;-76
2022/01/04 09:51:55;;;;;;;0.35;0.35;;;;;;;11.96;86.79;96899.16;4816726;29;20037;-76
2022/01/04 09:54:24;;;;;;;0.30;0.30;;;;;;;12.00;86.94;96894.63;4771007;29;20499;-77
2022/01/04 09:56:50;;;;;;;0.80;0.60;;;;;;;11.92;88.47;96902.81;4821131;29;20115;-74
2022/01/04 09:59:17;;;;;;;4.80;0.70;;;;;;;11.92;88.60;96902.81;4780245;28;20040;-74
2022/01/04 10:01:45;;;;;;;0.20;0.20;;;;;;;11.92;87.11;96896.78;4916893;29;20037;-73
2022/01/04 10:04:12;;;;;;;0.35;0.35;;;;;;;11.94;88.87;96901.00;4918715;29;20106;-75
2022/01/04 10:06:39;;;;;;;0.20;0.20;;;;;;;11.94;88.46;96901.00;4918284;29;20088;-73
2022/01/04 10:09:11;;;;;;;0.22;0.22;;;;;;;11.91;87.81;96895.97;4918178;29;20565;-73
2022/01/04 10:11:47;;;;;;;0.55;0.40;;;;;;;11.94;89.41;96890.63;4918565;29;20039;-77
2022/01/04 10:14:30;;;;;;;1.77;1.67;;;;;;;11.95;88.97;96892.28;4918430;29;20036;-76
2022/01/04 10:17:01;;;;;;;0.22;0.22;;;;;;;11.90;89.53;96898.66;4918104;29;20039;-75
2022/01/04 10:19:32;;;;;;;0.50;0.50;;;;;;;11.99;88.13;96899.00;4918271;29;20055;-76
2022/01/04 10:22:23;;;;;;;0.30;0.30;;;;;;;11.99;88.56;96883.41;4918351;29;20055;-75
2022/01/04 10:25:08;;;;;;;0.25;0.25;;;;;;;12.06;86.81;96882.16;4918216;29;20513;-76
2022/01/04 10:27:37;;;;;;;0.40;0.40;;;;;;;12.12;85.73;96878.38;4918018;29;20074;-72
2022/01/04 10:30:12;;;;;;;0.40;0.40;;;;;;;12.32;84.28;96864.28;4918170;29;20039;-74
2022/01/04 10:32:55;;;;;;;0.40;0.40;;;;;;;12.25;84.87;96858.63;4918150;29;20494;-74
2022/01/04 10:35:26;;;;;;;0.30;0.30;;;;;;;12.27;85.65;96871.50;4918004;29;20132;-76
2022/01/04 10:37:53;;;;;;;0.30;0.30;;;;;;;12.24;85.02;96872.53;4917691;29;20513;-75
2022/01/04 10:40:19;;;;;;;0.30;0.30;;;;;;;12.23;85.23;96864.81;4917865;29;20048;-72
2022/01/04 10:42:45;;;;;;;0.57;0.57;;;;;;;12.32;83.41;96861.69;4917974;29;20028;-76
2022/01/04 10:45:31;;;;;;;0.60;0.60;;;;;;;12.39;83.08;96860.44;4917743;29;20088;-77
2022/01/04 10:48:14;;;;;;;0.25;0.25;;;;;;;12.34;83.51;96862.47;4917744;29;20486;-74
2022/01/04 10:50:41;;;;;;;0.47;0.47;;;;;;;12.41;82.59;96853.38;4917663;29;20035;-73
2022/01/04 10:53:22;;;;;;;0.60;0.60;;;;;;;12.36;82.13;96855.41;4917772;29;20028;-74
2022/01/04 10:55:50;;;;;;;1.13;1.00;;;;;;;12.43;80.94;96872.34;4835050;28;20071;-77
2022/01/04 10:58:30;;;;;;;0.85;0.85;;;;;;;12.46;80.89;96840.97;4936692;29;20086;-76
2022/01/04 11:01:00;;;;;;;3.60;1.50;;;;;;;12.41;80.16;96827.41;4936674;29;20027;-76
2022/01/04 11:03:31;;;;;;;0.30;0.30;;;;;;;12.43;81.16;96851.56;4936616;29;20036;-79
2022/01/04 11:06:22;;;;;;;0.30;0.30;;;;;;;12.36;81.52;96837.22;4936161;29;20042;-77
2022/01/04 11:08:48;;;;;;;0.47;0.47;;;;;;;12.36;79.72;96829.44;4925280;29;20154;-77
2022/01/04 11:11:14;;;;;;;0.22;0.22;;;;;;;12.34;82.38;96818.31;4917368;29;20132;-77
2022/01/04 11:13:39;;;;;;;0.40;0.40;;;;;;;12.27;81.90;96817.81;4825696;28;20075;-77
2022/01/04 11:16:06;;;;;;;1.08;0.47;;;;;;;12.29;81.18;96825.53;4784742;28;20394;-77
2022/01/04 11:18:33;;;;;;;0.70;0.70;;;;;;;12.28;82.23;96822.09;4825976;28;20031;-77
2022/01/04 11:20:59;;;;;;;0.20;0.20;;;;;;;12.28;81.90;96826.44;4824749;28;20586;-76
2022/01/04 11:23:34;;;;;;;0.20;0.20;;;;;;;12.30;81.63;96824.59;4917202;29;20107;-75
2022/01/04 11:26:01;;;;;;;0.60;0.60;;;;;;;12.43;81.21;96830.78;4916747;29;20032;-77
2022/01/04 11:28:28;;;;;;;0.50;0.50;;;;;;;12.39;80.96;96825.84;4870747;28;20123;-77
2022/01/04 11:30:59;;;;;;;0.82;0.57;;;;;;;12.44;80.65;96824.66;4824921;23;20072;-74
2022/01/04 11:33:32;;;;;;;0.40;0.40;;;;;;;12.44;81.72;96824.66;4850160;28;20046;-71
2022/01/04 11:35:59;;;;;;;1.85;1.33;;;;;;;12.34;81.70;96823.50;4851994;28;20132;-71
2022/01/04 11:38:35;;;;;;;0.43;0.43;;;;;;;12.32;82.02;96823.56;4944806;29;20554;-71
2022/01/04 11:41:02;;;;;;;2.72;0.73;;;;;;;12.26;83.83;96821.31;4945334;29;20035;-71
2022/01/04 11:43:38;;;;;;;0.40;0.40;;;;;;;12.23;83.44;96818.06;4933580;29;20420;-71
2022/01/04 11:46:05;;;;;;;0.50;0.50;;;;;;;12.29;83.81;96822.94;4911470;28;20038;-71
2022/01/04 11:48:43;;;;;;;0.57;0.38;;;;;;;12.30;82.02;96806.41;4909202;29;20043;-71
2022/01/04 11:51:24;;;;;;;0.50;0.50;;;;;;;12.27;83.21;96809.19;4933309;29;20398;-71
2022/01/04 11:54:16;;;;;;;1.13;0.40;;;;;;;12.24;83.26;96812.81;4933215;29;20044;-71
2022/01/04 11:56:54;;;;;;;0.57;0.50;;;;;;;12.37;82.13;96805.13;4933126;29;20090;-70
2022/01/04 11:59:31;;;;;;;0.65;0.47;;;;;;;12.32;82.25;96799.38;4917339;29;20036;-71
2022/01/04 12:01:56;;;;;;;0.40;0.40;;;;;;;12.31;83.54;96805.50;4933129;29;20065;-71
2022/01/04 12:04:48;;;;;;;0.77;0.77;;;;;;;12.22;83.95;96806.00;4927560;29;20115;-71
2022/01/04 12:07:39;;;;;;;0.52;0.50;;;;;;;12.21;83.98;96799.16;4910611;29;20387;-70
2022/01/04 12:10:19;;;;;;;0.32;0.32;;;;;;;12.13;84.87;96801.31;4916283;29;20024;-71
2022/01/04 12:13:12;;;;;;;0.30;0.30;;;;;;;12.06;85.27;96791.28;4916369;29;20036;-71
2022/01/04 12:15:37;;;;;;;3.92;0.40;;;;;;;12.17;84.75;96793.28;4916373;29;20027;-70
2022/01/04 12:18:05;;;;;;;0.30;0.30;;;;;;;12.10;84.80;96797.16;4914878;29;20111;-71
2022/01/04 12:20:43;;;;;;;0.30;0.30;;;;;;;12.06;86.80;96806.03;4916121;29;20107;-71
2022/01/04 12:23:23;;;;;;;0.82;0.60;;;;;;;12.00;86.38;96811.56;4916104;29;20038;-70
2022/01/04 12:26:04;;;;;;;0.50;0.50;;;;;;;12.03;85.80;96796.66;4915099;29;20028;-70
2022/01/04 12:28:31;;;;;;;0.65;0.60;;;;;;;12.06;85.79;96796.50;4916073;29;20031;-70
2022/01/04 12:31:20;;;;;;;1.17;1.15;;;;;;;12.00;86.55;96804.63;4839372;29;20048;-70
2022/01/04 12:33:49;;;;;;;0.50;0.50;;;;;;;11.95;87.61;96806.63;4897193;29;20059;-70
2022/01/04 12:36:28;;;;;;;0.45;0.45;;;;;;;11.94;88.13;96802.38;4898718;29;20020;-70
2022/01/04 12:38:55;;;;;;;5.45;2.83;;;;;;;11.92;87.71;96799.00;4908207;29;20087;-71
2022/01/04 12:41:21;;;;;;;0.43;0.43;;;;;;;11.91;87.02;96799.94;4915801;29;20039;-71
2022/01/04 12:43:49;;;;;;;0.85;0.82;;;;;;;11.88;87.31;96792.31;4915815;29;20035;-70
2022/01/04 12:46:34;;;;;;;0.60;0.38;;;;;;;11.93;85.84;96787.69;4915852;29;20537;-71
2022/01/04 12:49:02;;;;;;;1.10;1.05;;;;;;;11.88;86.74;96796.66;4915733;29;20032;-71
2022/01/04 12:51:30;;;;;;;0.45;0.45;;;;;;;11.85;87.14;96786.47;4915595;29;20494;-70
2022/01/04 12:53:58;;;;;;;0.50;0.50;;;;;;;11.81;87.16;96780.56;4915894;29;20039;-70
2022/01/04 12:56:24;;;;;;;7.43;1.90;;;;;;;11.88;85.42;96784.53;4915698;29;20024;-70
2022/01/04 12:58:50;;;;;;;2.45;1.60;;;;;;;11.88;85.52;96776.75;4915697;29;20036;-71
2022/01/04 13:01:46;;;;;;;0.98;0.80;;;;;;;11.90;85.97;96779.28;4915668;29;20036;-70
2022/01/04 13:04:23;;;;;;;0.40;0.40;;;;;;;11.94;86.87;96791.13;4914955;29;20047;-70
2022/01/04 13:06:49;;;;;;;0.38;0.38;;;;;;;11.84;86.50;96796.00;4911917;29;20385;-70
2022/01/04 13:09:23;;;;;;;0.40;0.40;;;;;;;11.82;86.55;96797.84;4905783;29;20029;-70
2022/01/04 13:11:49;;;;;;;0.75;0.57;;;;;;;11.78;87.68;96806.69;4896637;29;20040;-70
2022/01/04 13:14:22;;;;;;;0.50;0.47;;;;;;;11.72;89.01;96812.22;4896777;29;20040;-69
2022/01/04 13:16:49;;;;;;;5.28;0.82;;;;;;;11.59;91.28;96812.03;4896538;29;20024;-69
2022/01/04 13:19:19;;;;;;;0.70;0.70;;;;;;;11.49;91.72;96822.06;4896682;29;20036;-69
2022/01/04 13:21:52;;;;;;;0.40;0.40;;;;;;;11.43;92.37;96822.38;4896644;29;20033;-69
2022/01/04 13:24:39;;;;;;;1.98;0.63;;;;;;;11.33;93.94;96821.19;4896769;29;20028;-69
2022/01/04 13:27:34;;;;;;;0.50;0.50;;;;;;;11.28;95.05;96820.59;4896377;29;20044;-69
2022/01/04 13:30:19;;;;;;;0.55;0.55;;;;;;;11.11;97.54;96815.44;4896629;29;20553;-69
2022/01/04 13:32:51;;;;;;;0.50;0.50;;;;;;;11.09;97.82;96819.88;4896459;29;20123;-69
2022/01/04 13:35:29;;;;;;;0.57;0.57;;;;;;;11.06;99.06;96813.09;4896520;29;20025;-71
2022/01/04 13:38:00;;;;;;;0.80;0.60;;;;;;;10.94;99.65;96806.78;4907802;29;20068;-69
2022/01/04 13:40:28;;;;;;;1.25;1.08;;;;;;;10.90;100.00;96797.50;4881445;29;20028;-72
2022/01/04 13:43:00;;;;;;;0.50;0.50;;;;;;;10.87;100.00;96797.66;4881327;29;20032;-73
2022/01/04 13:45:26;;;;;;;1.80;0.73;;;;;;;10.88;100.00;96799.34;4881319;29;20025;-72
2022/01/04 13:47:57;;;;;;;0.47;0.47;;;;;;;10.91;100.00;96799.16;4880976;29;20035;-73
2022/01/04 13:50:30;;;;;;;0.68;0.68;;;;;;;10.87;100.00;96802.00;4881353;29;20208;-72
2022/01/04 13:53:01;;;;;;;0.40;0.40;;;;;;;10.99;100.00;96804.81;4881034;29;20033;-72
2022/01/04 13:55:41;;;;;;;0.30;0.30;;;;;;;10.92;100.00;96810.38;4881086;29;20025;-72
2022/01/04 13:58:10;;;;;;;0.40;0.40;;;;;;;10.90;100.00;96802.69;4880943;29;20483;-70
2022/01/04 14:00:38;;;;;;;0.45;0.45;;;;;;;10.94;100.00;96809.38;4881014;29;20052;-72
2022/01/04 14:03:29;;;;;;;0.32;0.32;;;;;;;10.89;100.00;96811.38;4881076;29;20029;-72
2022/01/04 14:05:56;;;;;;;0.73;0.73;;;;;;;10.86;100.00;96806.34;4883826;29;20041;-72
2022/01/04 14:08:23;;;;;;;1.30;0.50;;;;;;;10.88;100.00;96794.16;4907285;29;20040;-72
2022/01/04 14:10:53;;;;;;;0.30;0.30;;;;;;;10.90;100.00;96823.41;4899434;29;20179;-72
2022/01/04 14:13:36;;;;;;;3.33;1.55;;;;;;;10.60;100.00;96872.41;4898976;29;20076;-71
2022/01/04 14:16:11;;;;;;;0.50;0.50;;;;;;;9.93;100.00;96891.94;4907088;29;20048;-73
2022/01/04 14:18:57;;;;;;;0.40;0.40;;;;;;;9.30;100.00;96880.97;4899455;29;20028;-73
2022/01/04 14:21:32;;;;;;;0.40;0.40;;;;;;;8.70;100.00;96895.53;4899321;29;20032;-71
2022/01/04 14:23:57;;;;;;;0.50;0.50;;;;;;;8.34;100.00;96905.56;4899557;29;20379;-71
2022/01/04 14:26:23;;;;;;;0.40;0.40;;;;;;;8.07;100.00;96904.91;4899211;29;20036;-71
2022/01/04 14:28:49;;;;;;;0.52;0.52;;;;;;;8.02;100.00;96928.28;4899325;29;20111;-71
2022/01/04 14:31:18;;;;;;;0.40;0.40;;;;;;;7.99;100.00;96956.78;4899128;29;20071;-71
2022/01/04 14:33:43;;;;;;;0.45;0.45;;;;;;;8.04;100.00;96952.28;4899141;29;20060;-71
2022/01/04 14:36:09;;;;;;;0.47;0.47;;;;;;;7.82;100.00;96962.53;4907226;29;20046;-71
2022/01/04 14:38:34;;;;;;;0.40;0.40;;;;;;;7.95;100.00;96953.47;4913490;29;20024;-70
2022/01/04 14:40:59;;;;;;;0.40;0.40;;;;;;;7.91;100.00;96957.06;4899081;29;20033;-71
2022/01/04 14:43:26;;;;;;;0.30;0.30;;;;;;;7.70;100.00;96963.00;4899120;29;20482;-71
2022/01/04 14:45:51;;;;;;;0.70;0.70;;;;;;;7.63;100.00;96982.97;4898694;29;20028;-71
2022/01/04 14:48:18;;;;;;;0.50;0.50;;;;;;;7.64;100.00;96988.97;4897952;29;20033;-72
2022/01/04 14:50:43;;;;;;;0.50;0.50;;;;;;;7.51;100.00;97006.63;4899030;29;20025;-72
2022/01/04 14:53:09;;;;;;;14.80;0.70;;;;;;;7.40;100.00;97022.44;4899097;29;20025;-72
2022/01/04 14:55:34;;;;;;;0.70;0.70;;;;;;;7.47;100.00;97020.50;4898797;29;20025;-70
2022/01/04 14:57:59;;;;;;;0.40;0.40;;;;;;;7.24;100.00;97026.41;4898741;29;20502;-75
2022/01/04 15:00:25;;;;;;;0.40;0.40;;;;;;;7.16;100.00;97038.72;4898705;29;20530;-72
2022/01/04 15:02:50;;;;;;;0.57;0.57;;;;;;;7.08;100.00;97040.69;4898603;29;20039;-72
2022/01/04 15:05:16;;;;;;;1.75;1.58;;;;;;;7.00;100.00;97042.66;4906437;29;20446;-74
2022/01/04 15:07:42;;;;;;;0.47;0.47;;;;;;;7.04;100.00;97049.38;4903781;29;20025;-74
2022/01/04 15:10:09;;;;;;;0.40;0.40;;;;;;;6.99;100.00;97046.13;4900728;29;20032;-70
2022/01/04 15:12:34;;;;;;;0.47;0.47;;;;;;;7.05;100.00;97051.91;4898618;29;20059;-73
2022/01/04 15:15:03;;;;;;;2.85;0.85;;;;;;;6.92;100.00;97051.47;4898494;29;20060;-74
2022/01/04 15:17:28;;;;;;;0.40;0.40;;;;;;;6.88;100.00;97062.75;4898185;29;20035;-74
2022/01/04 15:19:53;;;;;;;0.73;0.73;;;;;;;6.90;100.00;97058.38;4898385;29;20032;-74
2022/01/04 15:22:20;;;;;;;0.50;0.50;;;;;;;6.82;100.00;97070.66;4898219;29;20039;-74
2022/01/04 15:24:47;;;;;;;0.60;0.60;;;;;;;6.77;100.00;97064.81;4898297;29;20024;-75
2022/01/04 15:27:14;;;;;;;0.40;0.40;;;;;;;6.70;100.00;97077.00;4898030;29;20028;-75
2022/01/04 15:29:39;;;;;;;0.82;0.82;;;;;;;6.66;100.00;97080.56;4898249;29;20398;-74
2022/01/04 15:32:05;;;;;;;0.40;0.40;;;;;;;6.74;100.00;97093.22;4896601;29;20028;-74
2022/01/04 15:34:30;;;;;;;0.90;0.90;;;;;;;6.75;100.00;97094.91;4901910;29;20036;-74
2022/01/04 15:36:55;;;;;;;0.40;0.40;;;;;;;6.72;100.00;97097.56;4908784;29;20024;-75
2022/01/04 15:39:21;;;;;;;0.50;0.50;;;;;;;6.65;100.00;97096.06;4908971;29;20135;-73
2022/01/04 15:41:48;;;;;;;0.85;0.85;;;;;;;6.61;100.00;97107.31;4916766;29;20032;-74
2022/01/04 15:44:14;;;;;;;0.50;0.50;;;;;;;6.65;100.00;97108.91;4916766;29;20118;-73
2022/01/04 15:46:40;;;;;;;0.75;0.75;;;;;;;6.47;100.00;97114.59;4916297;29;20036;-73
2022/01/04 15:49:05;;;;;;;2.08;1.88;;;;;;;6.48;100.00;97105.97;4916666;29;20039;-73
2022/01/04 15:51:31;;;;;;;0.80;0.80;;;;;;;6.43;100.00;97109.56;4916435;29;20028;-74
2022/01/04 15:53:59;;;;;;;0.52;0.52;;;;;;;6.46;100.00;97128.34;4916603;29;20119;-74
2022/01/04 15:56:24;;;;;;;0.63;0.63;;;;;;;6.32;100.00;97147.56;4916571;29;20023;-71
2022/01/04 15:58:50;;;;;;;0.60;0.60;;;;;;;6.27;100.00;97144.28;4916446;29;20032;-71
2022/01/04 16:01:15;;;;;;;0.40;0.40;;;;;;;6.35;100.00;97147.50;4916356;29;20109;-71
2022/01/04 16:03:40;;;;;;;0.40;0.40;;;;;;;6.32;100.00;97157.88;4916624;29;20095;-71